Etusivu
METAR-TAF:

METAR-TAF

Lentoasemat :

Lamoni Municipal Airport

Lamoni, Iowa, Yhdysvallat

Leveyspiiri: 40-37-50N, Pituuspiiri: 093-54-03W, korkeus merenpinnasta: 344 m

Tämänhetkinen sää

Tämä raportti tehtiin 42 minuuttia sitten, kello 11.53 UTC
Tuuli 5 kn pohjoisesta
Lämpötila 17°C
Kosteus 68%
Ilmanpaine 1009 hPa
Näkyvyys: 16.1 km
Hajonneita pilviä 10000 ft:n korkeudessa
Hajonneita pilviä 12000 ft:n korkeudessa

METAR: KLWD 271153Z AUTO 35005KT 10SM BKN100 BKN120 17/11 A2980 RMK AO2 SLP084 T01670106 10217 20167 51012

Aika: 07:35 (12:35 UTC)


TAF: puuttuu

Säähavainnot ja -ennusteet yli 4000 lentoasemalta (METAR- ja TAF-raportit).

Käytössä olevat sääasemat on merkitty karttaan keltaisilla ja punaisilla pisteillä.

Aseta hiiri pisteen päälle nähdäksesi sääaseman nimen.

Klikkaa sitten nähdäksesi säähavainnot ja -ennusteet.

Kartan vaihtaminen: klikkaa mustalla rastilla varustettuja vihreitä pisteitä, niin voit zoomata sisään; viivalla varustettua vihreää pistettä, niin voit zoomata ulos tai vihreitä nuolia, niin pääset viereisille kartoille.


METAR-TAF: